Time;durP1;ratioP1;P1;durP2;ratioP2;P2;SDS_P1;SDS_P2;PMS_P1;PMS_P2;Temp;Humidity;BMP_temperature;BMP_pressure;BME280_temperature;BME280_humidity;BME280_pressure;Samples;Min_cycle;Max_cycle;Signal;HPM_P1;HPM_P2
2023/02/14 00:01:49;;;;;;;9.25;5.35;;;4.80;97.20;;;;;;6286391;22;20026;-86
2023/02/14 00:04:17;;;;;;;9.27;4.28;;;4.70;97.20;;;;;;6311796;22;20034;-86
2023/02/14 00:06:45;;;;;;;10.15;5.25;;;4.70;97.20;;;;;;6311686;22;20023;-86
2023/02/14 00:09:15;;;;;;;8.93;5.43;;;4.70;97.20;;;;;;6285875;22;20019;-85
2023/02/14 00:11:43;;;;;;;10.00;5.25;;;4.70;97.30;;;;;;6286331;22;20029;-86
2023/02/14 00:16:57;;;;;;;10.68;5.53;;;4.60;97.20;;;;;;6311836;22;20072;-86
2023/02/14 00:19:25;;;;;;;9.65;4.93;;;4.60;97.30;;;;;;6311500;22;20015;-86
2023/02/14 00:21:52;;;;;;;9.68;5.25;;;4.50;97.30;;;;;;6311822;22;20022;-86
2023/02/14 00:24:25;;;;;;;9.60;4.72;;;4.50;97.20;;;;;;6311779;22;20093;-86
2023/02/14 00:26:52;;;;;;;8.90;5.32;;;4.50;97.30;;;;;;6312432;22;20023;-86
2023/02/14 00:29:24;;;;;;;11.45;5.93;;;4.40;97.30;;;;;;6287175;22;20025;-86
2023/02/14 00:31:52;;;;;;;;;;;4.40;97.30;;;;;;6312571;22;20097;-87
2023/02/14 00:34:19;;;;;;;9.02;4.75;;;4.40;97.30;;;;;;6311602;22;19980;-86
2023/02/14 00:36:47;;;;;;;13.27;5.82;;;4.30;97.30;;;;;;6311745;22;20097;-86
2023/02/14 00:39:16;;;;;;;10.68;5.95;;;4.40;97.30;;;;;;6312056;22;20018;-86
2023/02/14 00:41:44;;;;;;;10.13;5.63;;;4.30;97.30;;;;;;6311764;22;20025;-86
2023/02/14 00:44:12;;;;;;;10.20;5.45;;;4.30;97.30;;;;;;6261193;22;20470;-86
2023/02/14 00:46:39;;;;;;;9.70;4.97;;;4.30;97.30;;;;;;6311550;22;20026;-86
2023/02/14 00:49:09;;;;;;;10.13;5.20;;;4.30;97.30;;;;;;6311876;22;20023;-86
2023/02/14 00:51:37;;;;;;;8.45;4.88;;;4.20;97.30;;;;;;6286245;22;20023;-86
2023/02/14 00:54:05;;;;;;;8.55;4.93;;;4.20;97.30;;;;;;6311646;22;20428;-86
2023/02/14 00:56:32;;;;;;;9.68;4.32;;;4.20;97.30;;;;;;6311862;22;20043;-86
2023/02/14 00:59:02;;;;;;;8.98;5.28;;;4.20;97.30;;;;;;6311397;22;20493;-85
2023/02/14 01:01:29;;;;;;;9.63;5.22;;;4.20;97.30;;;;;;6260678;22;20396;-85
2023/02/14 01:03:57;;;;;;;8.68;4.35;;;4.10;97.30;;;;;;6285932;22;20060;-86
2023/02/14 01:06:24;;;;;;;9.40;4.70;;;4.10;97.30;;;;;;6260439;22;20060;-86
2023/02/14 01:08:52;;;;;;;9.65;5.30;;;4.10;97.30;;;;;;6311649;22;20018;-86
2023/02/14 01:11:21;;;;;;;7.20;3.88;;;4.10;97.30;;;;;;6311780;22;20018;-85
2023/02/14 01:13:49;;;;;;;7.32;4.13;;;4.10;97.30;;;;;;6261619;22;20015;-86
2023/02/14 01:16:19;;;;;;;7.45;3.88;;;4.10;97.30;;;;;;6311945;22;20026;-86
2023/02/14 01:18:47;;;;;;;10.75;5.00;;;4.10;97.30;;;;;;6287844;22;20401;-86
2023/02/14 01:21:28;;;;;;;9.20;4.53;;;4.00;97.30;;;;;;6288246;22;20375;-86
2023/02/14 01:23:58;;;;;;;7.18;4.35;;;4.00;97.30;;;;;;6313499;22;20026;-85
2023/02/14 01:26:26;;;;;;;7.85;4.43;;;4.00;97.30;;;;;;6313605;22;20106;-86
2023/02/14 01:28:56;;;;;;;8.45;4.32;;;4.00;97.30;;;;;;6312755;22;20048;-86
2023/02/14 01:31:38;;;;;;;9.05;4.70;;;3.90;97.20;;;;;;6313375;22;20101;-86
2023/02/14 01:34:05;;;;;;;8.20;3.97;;;3.90;97.30;;;;;;6263045;22;20018;-86
2023/02/14 01:36:36;;;;;;;7.90;4.78;;;3.90;97.30;;;;;;6288319;22;20015;-86
2023/02/14 01:39:07;;;;;;;7.13;3.92;;;3.90;97.30;;;;;;6287738;22;20022;-86
2023/02/14 01:41:36;;;;;;;7.70;4.18;;;3.80;97.30;;;;;;6287764;22;20019;-85
2023/02/14 01:44:14;;;;;;;8.18;4.40;;;3.80;97.30;;;;;;6312487;22;20502;-85
2023/02/14 01:46:43;;;;;;;7.25;3.75;;;3.80;97.30;;;;;;6312781;22;20019;-85
2023/02/14 01:49:20;;;;;;;9.18;4.68;;;3.80;97.30;;;;;;6287529;22;20042;-86
2023/02/14 01:52:05;;;;;;;7.57;3.58;;;3.80;97.30;;;;;;6287820;22;20019;-86
2023/02/14 01:54:35;;;;;;;7.45;4.15;;;3.80;97.30;;;;;;6313431;22;20444;-85
2023/02/14 01:57:07;;;;;;;6.80;3.97;;;3.70;97.30;;;;;;6312759;22;20019;-86
2023/02/14 01:59:39;;;;;;;8.98;5.05;;;3.70;97.30;;;;;;6312716;22;20023;-86
2023/02/14 02:02:07;;;;;;;8.35;4.30;;;3.70;97.30;;;;;;6312645;22;20114;-85
2023/02/14 02:04:38;;;;;;;8.30;4.22;;;3.70;97.30;;;;;;6312773;22;20015;-86
2023/02/14 02:07:13;;;;;;;6.65;3.78;;;3.70;97.30;;;;;;6313008;22;20029;-86
2023/02/14 02:09:59;;;;;;;8.60;3.63;;;3.70;97.30;;;;;;6313555;22;20023;-86
2023/02/14 02:12:26;;;;;;;7.82;4.13;;;3.70;97.30;;;;;;6312677;22;20026;-86
2023/02/14 02:14:59;;;;;;;9.75;3.97;;;3.60;97.30;;;;;;6312568;22;20064;-86
2023/02/14 02:17:41;;;;;;;7.95;3.97;;;3.60;97.30;;;;;;6312491;22;20026;-86
2023/02/14 02:20:34;;;;;;;5.68;3.15;;;3.60;97.30;;;;;;6312704;22;20022;-86
2023/02/14 02:23:29;;;;;;;6.32;3.28;;;3.60;97.30;;;;;;6313291;22;20386;-86
2023/02/14 02:26:34;;;;;;;7.30;3.40;;;3.50;97.30;;;;;;6286794;22;20060;-86
2023/02/14 02:29:10;;;;;;;6.57;3.60;;;3.50;97.30;;;;;;6312868;22;20049;-86
2023/02/14 02:32:08;;;;;;;7.97;3.63;;;3.50;97.30;;;;;;6312496;22;20025;-86
2023/02/14 02:35:13;;;;;;;7.82;3.55;;;3.50;97.20;;;;;;6312898;22;20046;-86
2023/02/14 02:38:18;;;;;;;7.05;3.85;;;3.50;97.30;;;;;;6286919;22;20014;-86
2023/02/14 02:41:08;;;;;;;6.50;3.58;;;3.40;97.20;;;;;;6312786;22;20444;-86
2023/02/14 02:43:48;;;;;;;6.30;3.33;;;3.40;97.50;;;;;;6312397;22;20015;-86
2023/02/14 02:58:29;;;;;;;8.15;3.67;;;3.30;97.20;;;;;;6312216;22;20019;-86
2023/02/14 03:00:59;;;;;;;8.25;4.25;;;3.20;97.30;;;;;;6312624;22;20371;-86
2023/02/14 03:06:16;;;;;;;6.65;3.28;;;3.20;97.50;;;;;;6312537;22;20018;-86
2023/02/14 03:08:47;;;;;;;7.82;3.65;;;3.20;97.30;;;;;;6312689;22;20023;-86
2023/02/14 03:11:15;;;;;;;8.23;4.40;;;3.20;97.30;;;;;;6288105;22;20022;-87
2023/02/14 03:14:16;;;;;;;7.57;3.75;;;3.20;97.30;;;;;;6287531;22;20370;-87
2023/02/14 03:17:07;;;;;;;7.18;3.50;;;3.20;97.30;;;;;;6287055;22;20014;-87
2023/02/14 03:22:51;;;;;;;7.40;4.05;;;3.10;97.30;;;;;;6312372;22;20018;-87
2023/02/14 03:25:41;;;;;;;9.10;4.18;;;3.10;97.30;;;;;;6287044;22;20049;-86
2023/02/14 03:28:26;;;;;;;7.30;3.85;;;3.10;97.30;;;;;;6312696;22;20399;-87
2023/02/14 03:31:23;;;;;;;6.65;3.53;;;3.10;97.30;;;;;;6286732;22;20030;-87
2023/02/14 03:34:06;;;;;;;6.75;4.15;;;3.10;97.30;;;;;;6312600;22;20479;-88
2023/02/14 03:36:44;;;;;;;7.38;3.75;;;3.00;97.20;;;;;;6286935;22;20322;-85
2023/02/14 03:39:22;;;;;;;7.18;3.50;;;3.00;97.30;;;;;;6311732;22;20018;-87
2023/02/14 03:42:03;;;;;;;7.45;3.22;;;3.00;97.30;;;;;;6312366;22;20348;-86
2023/02/14 03:44:34;;;;;;;5.50;2.70;;;3.00;97.30;;;;;;6286753;22;20019;-85
2023/02/14 03:47:11;;;;;;;7.88;3.80;;;3.00;97.30;;;;;;6287123;22;20025;-86
2023/02/14 03:49:56;;;;;;;6.45;3.33;;;3.00;97.30;;;;;;6312132;22;20085;-86
2023/02/14 03:52:27;;;;;;;8.05;3.88;;;3.00;97.30;;;;;;6287058;22;20053;-86
2023/02/14 03:54:59;;;;;;;6.60;3.28;;;2.90;97.30;;;;;;6286943;22;20025;-86
2023/02/14 03:57:50;;;;;;;7.28;3.30;;;2.90;97.30;;;;;;6311805;22;20014;-86
2023/02/14 04:00:17;;;;;;;6.65;3.25;;;2.90;97.30;;;;;;6312102;22;20018;-87
2023/02/14 04:02:53;;;;;;;7.88;3.75;;;2.80;97.30;;;;;;6286406;22;20023;-86
2023/02/14 04:05:26;;;;;;;5.47;3.15;;;2.90;97.30;;;;;;6286252;22;20491;-86
2023/02/14 04:07:56;;;;;;;9.37;4.20;;;2.90;97.30;;;;;;6311863;22;20049;-86
2023/02/14 04:10:25;;;;;;;6.23;3.20;;;2.80;97.30;;;;;;6312491;22;20515;-86
2023/02/14 04:12:55;;;;;;;8.93;3.50;;;2.80;97.30;;;;;;6312190;22;20018;-86
2023/02/14 04:15:25;;;;;;;6.60;2.70;;;2.80;97.30;;;;;;6311867;22;20444;-86
2023/02/14 04:20:39;;;;;;;8.07;3.27;;;2.80;97.30;;;;;;6311737;22;20014;-86
2023/02/14 04:23:06;;;;;;;7.63;3.77;;;2.70;97.20;;;;;;6260923;22;20101;-86
2023/02/14 04:25:33;;;;;;;6.07;3.25;;;2.70;97.30;;;;;;6286358;22;20089;-86
2023/02/14 04:28:01;;;;;;;7.55;3.65;;;2.70;97.30;;;;;;6261066;22;20360;-86
2023/02/14 04:30:28;;;;;;;7.53;3.90;;;2.70;97.30;;;;;;6311808;22;20394;-86
2023/02/14 04:32:55;;;;;;;7.68;3.60;;;2.70;97.30;;;;;;6311943;22;20046;-86
2023/02/14 04:35:22;;;;;;;7.60;3.72;;;2.70;97.30;;;;;;6260836;22;20101;-86
2023/02/14 04:37:49;;;;;;;6.32;3.13;;;2.70;97.30;;;;;;6260897;22;20023;-86
2023/02/14 04:40:19;;;;;;;9.10;4.10;;;2.70;97.30;;;;;;6261968;22;20025;-86
2023/02/14 04:42:46;;;;;;;7.30;3.65;;;2.60;97.20;;;;;;6258296;22;20512;-86
2023/02/14 04:45:14;;;;;;;7.55;3.65;;;2.60;97.20;;;;;;6311442;22;20026;-86
2023/02/14 04:47:41;;;;;;;7.60;4.37;;;2.60;97.20;;;;;;6311322;22;20050;-86
2023/02/14 04:50:08;;;;;;;6.47;3.25;;;2.60;97.20;;;;;;6312009;22;20073;-86
2023/02/14 04:52:35;;;;;;;7.43;3.77;;;2.60;97.30;;;;;;6313609;22;20023;-86
2023/02/14 04:55:03;;;;;;;8.40;3.87;;;2.60;97.30;;;;;;6288584;22;20022;-86
2023/02/14 04:57:32;;;;;;;7.43;3.27;;;2.60;97.30;;;;;;6289560;22;20018;-86
2023/02/14 04:59:59;;;;;;;7.53;3.60;;;2.50;97.30;;;;;;6308725;22;20019;-86
2023/02/14 05:02:26;;;;;;;7.15;2.95;;;2.60;97.30;;;;;;6302152;22;20322;-86
2023/02/14 05:04:53;;;;;;;9.20;3.00;;;2.50;97.30;;;;;;6313026;22;20011;-86
2023/02/14 05:07:21;;;;;;;8.40;3.55;;;2.50;97.30;;;;;;6262718;22;20064;-86
2023/02/14 05:09:48;;;;;;;8.98;3.75;;;2.50;97.30;;;;;;6287974;22;20014;-85
2023/02/14 05:12:15;;;;;;;7.15;3.65;;;2.50;97.30;;;;;;6314065;22;20101;-86
2023/02/14 05:14:42;;;;;;;7.20;3.70;;;2.50;97.30;;;;;;6263718;22;20015;-86
2023/02/14 05:17:10;;;;;;;7.43;3.30;;;2.50;97.30;;;;;;6238004;22;20026;-86
2023/02/14 05:19:37;;;;;;;7.27;3.20;;;2.50;97.30;;;;;;6313039;22;20462;-86
2023/02/14 05:22:04;;;;;;;6.77;3.50;;;2.40;97.30;;;;;;6237687;22;20026;-86
2023/02/14 05:24:32;;;;;;;5.70;2.93;;;2.40;97.30;;;;;;6313830;22;20015;-86
2023/02/14 05:26:59;;;;;;;6.50;3.13;;;2.40;97.30;;;;;;6287622;22;20021;-86
2023/02/14 05:29:26;;;;;;;7.40;3.33;;;2.40;97.30;;;;;;6287559;22;20018;-86
2023/02/14 05:31:53;;;;;;;7.93;3.80;;;2.40;97.30;;;;;;6262592;22;20023;-86
2023/02/14 05:34:20;;;;;;;6.53;3.10;;;2.30;97.30;;;;;;6288207;22;20068;-86
2023/02/14 05:36:48;;;;;;;6.57;3.47;;;2.30;97.30;;;;;;6262461;22;20030;-86
2023/02/14 05:39:15;;;;;;;7.20;3.20;;;2.30;97.30;;;;;;6237096;22;20018;-86
2023/02/14 05:41:42;;;;;;;7.33;3.60;;;2.30;97.30;;;;;;6288198;22;20056;-86
2023/02/14 05:44:09;;;;;;;7.03;2.87;;;2.30;97.30;;;;;;6313612;22;20318;-86
2023/02/14 05:46:36;;;;;;;7.10;3.10;;;2.30;97.30;;;;;;6262374;22;20051;-86
2023/02/14 05:49:04;;;;;;;8.73;3.80;;;2.30;97.30;;;;;;6262496;22;20046;-86
2023/02/14 05:51:31;;;;;;;6.88;3.20;;;2.20;97.30;;;;;;6262584;22;20019;-86
2023/02/14 05:53:59;;;;;;;5.55;2.55;;;2.20;97.30;;;;;;6262213;22;20052;-86
2023/02/14 05:56:27;;;;;;;6.60;2.80;;;2.20;97.30;;;;;;6262971;22;20023;-85
2023/02/14 05:58:54;;;;;;;6.17;2.97;;;2.20;97.30;;;;;;6287668;22;20092;-86
2023/02/14 06:01:21;;;;;;;6.72;2.90;;;2.20;97.30;;;;;;6287603;22;20011;-86
2023/02/14 06:03:51;;;;;;;6.03;2.55;;;2.20;97.30;;;;;;6261896;22;20098;-86
2023/02/14 06:06:18;;;;;;;7.17;3.50;;;2.20;97.30;;;;;;6312720;22;20026;-86
2023/02/14 06:08:45;;;;;;;6.30;2.85;;;2.20;97.30;;;;;;6261976;22;20025;-84
2023/02/14 06:11:12;;;;;;;7.27;3.40;;;2.20;97.30;;;;;;6313190;22;20102;-84
2023/02/14 06:13:40;;;;;;;5.60;2.63;;;2.10;97.30;;;;;;6312773;22;20023;-85
2023/02/14 06:16:07;;;;;;;5.53;2.03;;;2.10;97.30;;;;;;6313455;22;20097;-86
2023/02/14 06:18:34;;;;;;;5.07;2.30;;;2.10;97.30;;;;;;6287403;22;20022;-89
2023/02/14 06:21:04;;;;;;;5.23;2.57;;;2.10;97.30;;;;;;6263169;22;20375;-89
2023/02/14 06:23:33;;;;;;;6.30;3.08;;;2.10;97.30;;;;;;6313040;22;20022;-86
2023/02/14 06:26:03;;;;;;;5.90;2.77;;;2.10;97.30;;;;;;6262076;22;20047;-86
2023/02/14 06:28:32;;;;;;;6.20;2.78;;;2.10;97.40;;;;;;6287754;22;20025;-86
2023/02/14 06:30:59;;;;;;;5.38;3.03;;;2.00;97.30;;;;;;6312912;22;20018;-87
2023/02/14 06:33:27;;;;;;;6.27;2.83;;;2.10;97.30;;;;;;6312941;22;20015;-86
2023/02/14 06:35:56;;;;;;;5.90;2.80;;;2.00;97.30;;;;;;6287646;22;20023;-86
2023/02/14 06:38:24;;;;;;;5.77;2.87;;;2.00;97.30;;;;;;6261497;22;20018;-85
2023/02/14 06:40:51;;;;;;;6.05;3.13;;;2.00;97.30;;;;;;6287944;22;20022;-85
2023/02/14 06:43:21;;;;;;;5.77;2.80;;;2.00;97.30;;;;;;6312715;22;20440;-85
2023/02/14 06:45:48;;;;;;;6.77;3.87;;;2.00;97.30;;;;;;6287011;22;20042;-85
2023/02/14 06:48:15;;;;;;;5.77;2.20;;;2.00;97.30;;;;;;6312772;22;20437;-85
2023/02/14 06:50:42;;;;;;;6.37;3.10;;;2.00;97.30;;;;;;6313101;22;20023;-85
2023/02/14 06:53:11;;;;;;;5.47;2.65;;;2.00;97.30;;;;;;6313206;22;20015;-85
2023/02/14 06:55:38;;;;;;;6.37;2.97;;;2.00;97.30;;;;;;6312553;22;20023;-85
2023/02/14 06:58:05;;;;;;;5.63;2.33;;;2.00;97.30;;;;;;6312705;22;20056;-86
2023/02/14 07:00:35;;;;;;;6.45;3.20;;;1.90;97.30;;;;;;6288775;22;20015;-86
2023/02/14 07:03:02;;;;;;;6.23;3.10;;;2.00;97.30;;;;;;6312490;22;20019;-85
2023/02/14 07:05:30;;;;;;;6.93;2.90;;;1.90;97.30;;;;;;6287329;22;20018;-85
2023/02/14 07:07:58;;;;;;;5.90;2.80;;;2.00;97.30;;;;;;6312339;22;20019;-85
2023/02/14 07:10:25;;;;;;;4.97;2.40;;;2.00;97.30;;;;;;6261922;22;20022;-86
2023/02/14 07:12:52;;;;;;;4.80;2.55;;;2.00;97.30;;;;;;6312551;22;20515;-86
2023/02/14 07:15:19;;;;;;;6.30;2.87;;;2.00;97.20;;;;;;6312486;22;20019;-85
2023/02/14 07:17:51;;;;;;;6.53;2.97;;;2.00;97.20;;;;;;6263136;22;20015;-85
2023/02/14 07:20:18;;;;;;;6.47;2.77;;;2.00;97.20;;;;;;6312489;22;20436;-86
2023/02/14 07:22:49;;;;;;;5.27;2.70;;;2.00;97.20;;;;;;6312477;22;20022;-86
2023/02/14 07:25:16;;;;;;;5.57;2.60;;;2.00;97.20;;;;;;6312219;22;20093;-86
2023/02/14 07:27:43;;;;;;;5.38;2.45;;;2.00;97.20;;;;;;6261411;22;20018;-86
2023/02/14 07:30:11;;;;;;;5.83;2.57;;;2.10;97.20;;;;;;6312274;22;20042;-86
2023/02/14 07:32:41;;;;;;;6.13;3.03;;;2.10;97.20;;;;;;6312421;22;20019;-86
2023/02/14 07:35:09;;;;;;;7.17;3.33;;;2.10;97.10;;;;;;6261399;22;20021;-86
2023/02/14 07:37:36;;;;;;;6.83;3.23;;;2.10;97.10;;;;;;6286536;22;20019;-86
2023/02/14 07:40:09;;;;;;;6.20;2.93;;;2.10;97.10;;;;;;6287513;22;20029;-86
2023/02/14 07:42:42;;;;;;;5.53;2.80;;;2.20;97.10;;;;;;6288976;22;20011;-86
2023/02/14 07:45:10;;;;;;;5.83;2.87;;;2.20;97.10;;;;;;6286945;22;20022;-86
2023/02/14 07:47:49;;;;;;;6.43;3.03;;;2.20;97.10;;;;;;6265933;22;20072;-86
2023/02/14 07:50:16;;;;;;;6.43;3.37;;;2.20;97.10;;;;;;6286998;22;20019;-86
2023/02/14 07:52:45;;;;;;;6.07;3.13;;;2.30;97.10;;;;;;6311985;22;20023;-86
2023/02/14 07:55:12;;;;;;;7.93;4.10;;;2.30;97.00;;;;;;6312160;22;20014;-86
2023/02/14 07:57:47;;;;;;;8.20;3.30;;;2.30;97.00;;;;;;6311875;22;20046;-86
2023/02/14 08:00:15;;;;;;;6.47;2.90;;;2.40;97.00;;;;;;6312251;22;20154;-86
2023/02/14 08:02:42;;;;;;;8.63;3.57;;;2.40;97.00;;;;;;6286538;22;20019;-86
2023/02/14 08:05:10;;;;;;;8.13;4.43;;;2.40;97.00;;;;;;6312095;22;20038;-86
2023/02/14 08:07:37;;;;;;;9.97;5.17;;;2.50;97.00;;;;;;6286974;22;20071;-85
2023/02/14 08:10:06;;;;;;;9.13;3.65;;;2.50;96.90;;;;;;6286850;22;20057;-86
2023/02/14 08:18:04;;;;;;;6.93;2.90;;;2.60;96.90;;;;;;6311942;22;20065;-86
2023/02/14 08:20:31;;;;;;;8.13;3.10;;;2.70;96.90;;;;;;6311677;22;20021;-86
2023/02/14 08:22:59;;;;;;;8.00;2.90;;;2.70;96.80;;;;;;6286694;22;20011;-86
2023/02/14 08:25:26;;;;;;;9.67;3.40;;;2.80;96.80;;;;;;6286237;22;20038;-86
2023/02/14 08:27:56;;;;;;;7.33;3.23;;;2.80;96.80;;;;;;6286341;22;20014;-86
2023/02/14 08:30:25;;;;;;;6.68;2.83;;;2.90;96.80;;;;;;6262898;22;20120;-86
2023/02/14 08:32:56;;;;;;;5.85;2.47;;;2.90;96.80;;;;;;6287203;22;20023;-86
2023/02/14 08:35:23;;;;;;;5.43;2.17;;;3.00;96.70;;;;;;6286443;22;20025;-86
2023/02/14 08:37:52;;;;;;;6.63;2.72;;;3.10;96.70;;;;;;6286401;22;20075;-85
2023/02/14 08:40:19;;;;;;;5.70;2.43;;;3.20;96.60;;;;;;6285839;22;20014;-84
2023/02/14 08:42:46;;;;;;;5.32;2.33;;;3.20;96.60;;;;;;6311206;22;20019;-84
2023/02/14 08:45:13;;;;;;;7.38;2.67;;;3.30;96.60;;;;;;6285828;22;20014;-83
2023/02/14 08:47:41;;;;;;;4.30;2.45;;;3.40;96.60;;;;;;6285839;22;20047;-84
2023/02/14 08:50:12;;;;;;;5.47;2.08;;;3.50;96.60;;;;;;6285785;22;20030;-84
2023/02/14 08:52:43;;;;;;;5.13;2.35;;;3.50;96.50;;;;;;6310611;22;20029;-85
2023/02/14 08:55:12;;;;;;;5.70;2.83;;;3.60;96.50;;;;;;6286152;22;20049;-86
2023/02/14 08:57:40;;;;;;;5.25;2.55;;;3.70;96.40;;;;;;6311848;22;20023;-87
2023/02/14 09:00:08;;;;;;;4.82;3.03;;;3.80;96.40;;;;;;6311551;22;20015;-87
2023/02/14 09:02:35;;;;;;;6.85;2.60;;;3.90;96.40;;;;;;6286249;22;20022;-87
2023/02/14 09:05:03;;;;;;;5.07;2.40;;;3.90;96.30;;;;;;6311715;22;20019;-85
2023/02/14 09:07:30;;;;;;;4.20;2.22;;;4.00;96.30;;;;;;6286631;22;20011;-91
2023/02/14 09:10:09;;;;;;;6.95;3.17;;;4.00;96.30;;;;;;6286908;22;20029;-89
2023/02/14 09:12:41;;;;;;;5.03;2.75;;;4.10;96.30;;;;;;6311459;22;20039;-89
2023/02/14 09:15:14;;;;;;;4.75;2.55;;;4.10;96.30;;;;;;6311705;22;20437;-92
2023/02/14 09:17:47;;;;;;;6.05;3.10;;;4.20;96.30;;;;;;6311211;22;20019;-90
2023/02/14 09:20:16;;;;;;;6.57;2.88;;;4.30;96.30;;;;;;6285645;22;20022;-89
2023/02/14 09:22:48;;;;;;;4.85;2.28;;;4.30;96.30;;;;;;6286095;22;20015;-86
2023/02/14 09:25:16;;;;;;;6.80;3.08;;;4.40;96.30;;;;;;6285045;22;20068;-85
2023/02/14 09:27:52;;;;;;;5.22;2.92;;;4.40;96.30;;;;;;6311080;22;20018;-87
2023/02/14 09:30:26;;;;;;;5.93;2.97;;;4.50;96.30;;;;;;6285483;22;20025;-87
2023/02/14 09:33:08;;;;;;;4.85;2.55;;;4.50;96.20;;;;;;6285425;22;20099;-85
2023/02/14 09:38:22;;;;;;;4.90;2.35;;;4.60;96.20;;;;;;6291009;22;20101;-86
2023/02/14 09:40:49;;;;;;;5.82;2.65;;;4.70;96.20;;;;;;6237243;22;20102;-86
2023/02/14 09:43:29;;;;;;;5.95;3.00;;;4.80;96.20;;;;;;6237395;22;20049;-84
2023/02/14 09:45:59;;;;;;;6.28;3.00;;;4.80;96.20;;;;;;6313299;22;20101;-88
2023/02/14 09:48:38;;;;;;;5.40;2.33;;;4.90;96.20;;;;;;6313416;22;20022;-90
2023/02/14 09:51:12;;;;;;;6.30;3.22;;;5.00;96.10;;;;;;6312744;22;20025;-85
2023/02/14 09:53:45;;;;;;;5.80;3.13;;;5.00;96.40;;;;;;6286819;22;20022;-85
2023/02/14 09:56:40;;;;;;;5.80;2.60;;;5.10;96.10;;;;;;6312938;22;20375;-84
2023/02/14 09:59:23;;;;;;;6.00;2.90;;;5.20;96.10;;;;;;6312622;22;20023;-85
2023/02/14 10:01:58;;;;;;;5.10;3.25;;;5.20;96.00;;;;;;6287078;22;20015;-85
2023/02/14 10:04:52;;;;;;;6.57;3.10;;;5.30;96.00;;;;;;6312360;22;20504;-84
2023/02/14 10:07:30;;;;;;;6.78;4.00;;;5.40;96.00;;;;;;6312357;22;20105;-85
2023/02/14 10:10:26;;;;;;;7.45;4.25;;;5.40;96.00;;;;;;6307158;22;20424;-84
2023/02/14 10:13:15;;;;;;;7.30;3.95;;;5.50;96.00;;;;;;6311695;22;20022;-84
2023/02/14 10:15:47;;;;;;;5.43;2.55;;;5.50;95.90;;;;;;6312284;22;20026;-85
2023/02/14 10:18:17;;;;;;;7.60;4.03;;;5.60;95.90;;;;;;6312767;22;20126;-86
2023/02/14 10:20:59;;;;;;;6.38;4.03;;;5.70;95.90;;;;;;6312996;22;20019;-84
2023/02/14 10:23:36;;;;;;;;;;;5.80;95.90;;;;;;6312874;22;20026;-85
2023/02/14 10:26:11;;;;;;;5.78;3.33;;;5.80;95.80;;;;;;6287025;22;20328;-85
2023/02/14 10:28:48;;;;;;;5.47;3.10;;;5.90;95.80;;;;;;6312516;22;20444;-85
2023/02/14 10:31:19;;;;;;;6.32;3.45;;;5.90;95.80;;;;;;6312456;22;20019;-85
2023/02/14 10:34:04;;;;;;;4.80;2.85;;;6.00;95.80;;;;;;6313262;22;20037;-85
2023/02/14 10:36:43;;;;;;;7.40;3.83;;;6.10;95.80;;;;;;6312601;22;20106;-85
2023/02/14 10:39:52;;;;;;;7.13;4.10;;;6.10;95.70;;;;;;6312252;22;20065;-85
2023/02/14 10:42:47;;;;;;;4.63;3.03;;;6.20;95.70;;;;;;6312723;22;20039;-85
2023/02/14 10:45:22;;;;;;;5.57;3.50;;;6.30;95.60;;;;;;6312271;22;20467;-82
2023/02/14 10:48:28;;;;;;;4.95;3.08;;;6.30;95.60;;;;;;6311671;22;20019;-83
2023/02/14 10:51:03;;;;;;;4.75;2.75;;;6.40;95.60;;;;;;6312163;22;20117;-82
2023/02/14 10:53:31;;;;;;;6.40;4.25;;;6.40;95.60;;;;;;6312115;22;21306;-82
2023/02/14 10:56:33;;;;;;;7.53;4.25;;;6.50;95.60;;;;;;6312088;22;20023;-83
2023/02/14 10:59:15;;;;;;;6.95;4.25;;;6.60;95.60;;;;;;6210459;22;20023;-82
2023/02/14 11:01:43;;;;;;;7.03;4.00;;;6.60;95.60;;;;;;6312211;22;20041;-82
2023/02/14 11:04:13;;;;;;;6.22;3.45;;;6.60;95.60;;;;;;6260886;22;20042;-82
2023/02/14 11:06:39;;;;;;;7.05;3.90;;;6.60;95.60;;;;;;6260961;22;20019;-82
2023/02/14 11:09:11;;;;;;;8.52;4.35;;;6.70;95.60;;;;;;6261422;22;20075;-90
2023/02/14 11:12:03;;;;;;;6.95;4.00;;;6.80;95.60;;;;;;6312801;22;20026;-93
2023/02/14 11:14:43;;;;;;;6.22;3.38;;;6.90;95.60;;;;;;6262429;22;20022;-86
2023/02/14 11:25:30;;;;;;;7.18;3.55;;;7.00;95.40;;;;;;6313027;22;20033;-92
2023/02/14 11:28:06;;;;;;;6.97;3.65;;;7.10;95.40;;;;;;6287117;22;20094;-94
2023/02/14 11:30:49;;;;;;;7.75;4.07;;;7.10;95.30;;;;;;6289114;22;20042;-88
2023/02/14 11:33:37;;;;;;;7.30;3.95;;;7.20;95.30;;;;;;6288381;22;20014;-93
2023/02/14 11:36:19;;;;;;;7.03;4.03;;;7.30;95.30;;;;;;6313625;22;20015;-87
2023/02/14 11:39:16;;;;;;;6.43;3.42;;;7.30;95.30;;;;;;6264448;22;20015;-89
2023/02/14 11:42:34;;;;;;;;;;;7.30;95.30;;;;;;6318571;22;20023;-95
2023/02/14 11:45:05;;;;;;;10.63;4.80;;;7.30;95.40;;;;;;6314370;22;19915;-94
2023/02/14 11:48:08;;;;;;;8.35;5.28;;;7.40;95.30;;;;;;6312509;22;20018;-91
2023/02/14 11:51:34;;;;;;;8.23;4.82;;;7.60;95.20;;;;;;6290426;22;20018;-87
2023/02/14 11:58:41;;;;;;;7.22;4.10;;;7.70;95.10;;;;;;6310735;22;20010;-90
2023/02/14 12:01:19;;;;;;;6.35;3.53;;;7.70;95.10;;;;;;6312378;22;20106;-90
2023/02/14 12:03:48;;;;;;;8.35;4.65;;;7.70;95.10;;;;;;6312649;22;20436;-89
2023/02/14 12:06:30;;;;;;;7.35;4.10;;;7.80;95.10;;;;;;6312837;22;20021;-86
2023/02/14 12:09:21;;;;;;;6.85;3.95;;;7.90;95.10;;;;;;6311852;22;20039;-89
2023/02/14 12:11:57;;;;;;;7.15;3.72;;;7.90;95.00;;;;;;6311868;22;20019;-85
2023/02/14 12:14:43;;;;;;;7.53;3.72;;;7.90;95.10;;;;;;6312178;22;20019;-95
2023/02/14 12:18:19;;;;;;;7.63;4.18;;;8.00;95.10;;;;;;6287764;22;20010;-90
2023/02/14 12:21:45;;;;;;;;;;;;;;;;;;;;;
2023/02/14 12:34:32;;;;;;;10.43;5.05;;;8.30;94.80;;;;;;6214864;23;20491;-90
2023/02/14 12:45:43;;;;;;;9.82;5.90;;;8.60;94.60;;;;;;6213989;23;20092;-83
2023/02/14 12:48:23;;;;;;;7.20;4.15;;;8.70;94.50;;;;;;6238878;22;20018;-83
2023/02/14 12:50:52;;;;;;;8.23;4.75;;;8.70;94.50;;;;;;6310859;22;20022;-80
2023/02/14 12:53:28;;;;;;;6.80;4.07;;;8.70;94.50;;;;;;6285518;22;20109;-78
2023/02/14 12:56:05;;;;;;;8.00;4.80;;;8.80;94.50;;;;;;6311120;22;20054;-84
2023/02/14 12:58:37;;;;;;;6.65;3.80;;;8.80;94.50;;;;;;6310736;22;20015;-83
2023/02/14 13:01:36;;;;;;;6.55;4.30;;;8.80;94.50;;;;;;6311000;22;20459;-78
2023/02/14 13:04:37;;;;;;;6.82;3.42;;;8.80;94.40;;;;;;6285537;22;20018;-82
2023/02/14 13:07:12;;;;;;;7.25;3.78;;;8.80;94.40;;;;;;6310577;22;20019;-83
2023/02/14 13:09:50;;;;;;;8.00;3.90;;;8.80;94.50;;;;;;6285387;22;20382;-82
2023/02/14 13:12:26;;;;;;;6.00;3.13;;;8.90;94.50;;;;;;6312118;22;20021;-78
2023/02/14 13:14:59;;;;;;;6.97;3.45;;;8.90;94.50;;;;;;6312409;22;20023;-78
2023/02/14 13:17:34;;;;;;;7.13;3.88;;;9.00;94.50;;;;;;6312755;22;20025;-77
2023/02/14 13:20:27;;;;;;;5.72;3.65;;;9.10;94.40;;;;;;6312739;22;20054;-87
2023/02/14 13:22:58;;;;;;;7.05;3.38;;;9.10;94.30;;;;;;6312964;22;20321;-87
2023/02/14 13:25:58;;;;;;;7.68;3.88;;;9.20;94.30;;;;;;6288533;22;20022;-87
2023/02/14 13:28:29;;;;;;;6.32;4.03;;;9.20;94.20;;;;;;6285561;22;20022;-80
2023/02/14 13:31:00;;;;;;;7.22;4.43;;;9.20;94.30;;;;;;6314067;22;20096;-86
2023/02/14 13:33:38;;;;;;;7.45;3.92;;;9.20;94.30;;;;;;6312974;22;20448;-84
2023/02/14 13:36:09;;;;;;;8.07;4.20;;;9.30;94.30;;;;;;6287529;22;20435;-84
2023/02/14 13:38:51;;;;;;;8.85;4.78;;;9.30;94.20;;;;;;6288238;22;20460;-83
2023/02/14 13:41:20;;;;;;;8.60;4.95;;;9.40;94.10;;;;;;6313478;22;20019;-84
2023/02/14 13:44:04;;;;;;;7.53;4.00;;;9.50;94.10;;;;;;6287538;22;20023;-83
2023/02/14 13:46:31;;;;;;;6.93;3.95;;;9.50;94.10;;;;;;6287429;22;20015;-84
2023/02/14 13:49:17;;;;;;;5.90;3.50;;;9.40;94.20;;;;;;6287429;22;20101;-83
2023/02/14 13:51:56;;;;;;;8.95;5.20;;;9.50;94.10;;;;;;6313134;22;20022;-89
2023/02/14 13:54:32;;;;;;;9.20;4.78;;;9.50;94.00;;;;;;6312444;22;20026;-85
2023/02/14 13:57:40;;;;;;;7.35;4.35;;;9.60;94.00;;;;;;6314540;22;20032;-88
2023/02/14 14:00:16;;;;;;;7.03;3.92;;;9.60;93.90;;;;;;6288482;22;20021;-86
2023/02/14 14:03:04;;;;;;;7.75;3.63;;;9.50;94.00;;;;;;6309934;22;20018;-91
2023/02/14 14:05:48;;;;;;;5.82;3.38;;;9.60;94.00;;;;;;6312795;22;20064;-90
2023/02/14 14:08:22;;;;;;;6.60;3.60;;;9.70;93.90;;;;;;6313514;22;20093;-88
2023/02/14 14:11:33;;;;;;;5.90;3.53;;;9.80;93.90;;;;;;6275427;22;20392;-91
2023/02/14 14:14:39;;;;;;;;;;;;;;;;;;;;;
2023/02/14 14:17:57;;;;;;;6.55;3.45;;;9.80;93.80;;;;;;6291097;22;20105;-84
2023/02/14 14:20:28;;;;;;;5.72;2.83;;;9.80;93.90;;;;;;6312215;22;20015;-82
2023/02/14 14:23:00;;;;;;;6.30;3.05;;;9.90;93.80;;;;;;6312770;22;20026;-88
2023/02/14 14:25:36;;;;;;;5.82;3.33;;;10.20;93.70;;;;;;6313855;22;20019;-88
2023/02/14 14:28:18;;;;;;;6.57;3.47;;;10.20;93.60;;;;;;6313795;22;20019;-88
2023/02/14 14:30:52;;;;;;;5.65;2.88;;;10.20;93.50;;;;;;6313533;22;20023;-90
2023/02/14 14:33:32;;;;;;;7.18;3.20;;;10.20;93.60;;;;;;6313429;22;20029;-90
2023/02/14 14:36:02;;;;;;;6.45;3.05;;;10.10;93.60;;;;;;6269675;22;20042;-90
2023/02/14 14:38:47;;;;;;;6.03;3.40;;;10.00;93.60;;;;;;6283859;22;20379;-88
2023/02/14 14:50:01;;;;;;;5.43;3.13;;;9.90;93.60;;;;;;6277848;22;20019;-88
2023/02/14 14:53:23;;;;;;;5.10;2.40;;;10.00;93.50;;;;;;6184768;23;20108;-86